Smoot, Wyoming
Current Conditions -  °F | °C
As of 1:35 PM on Thursday 27 Nov 2014 (Local Time) from KAFO Reporting Station
Clear Clear  
Wind Chill: 42°   Ceiling: Unl
Heat Index: 46°   Visibility: 10mi
Dew Point: 27°   Wind: 8mph
Humidity: 46%   Direction: 150°SSE
Pressure: 30.24"   Gusts: NA
Location:  42.62°N, 110.92°W
Report Text: KAFO 272035Z AUTO 15007KT 10SM CLR 08/M03 A3024 RMK AO2
Loading
Personal Weather Stations






























Interactive Weather Map New forecast layout! Learn more

10-Day Weather Forecast

Advertisements
Track Severe Weather on mobile